sensor_id;sensor_type;location;lat;lon;timestamp;P1;durP1;ratioP1;P2;durP2;ratioP2
65753;SDS011;69207;47.502;18.940;2023-12-20T00:00:25;63.40;;;30.52;;
65753;SDS011;69207;47.502;18.940;2023-12-20T00:01:28;55.80;;;27.45;;
65753;SDS011;69207;47.502;18.940;2023-12-20T00:02:32;66.12;;;31.87;;
65753;SDS011;69207;47.502;18.940;2023-12-20T00:03:35;66.87;;;31.77;;
65753;SDS011;69207;47.502;18.940;2023-12-20T00:04:44;87.07;;;33.03;;
65753;SDS011;69207;47.502;18.940;2023-12-20T00:05:47;88.25;;;34.53;;
65753;SDS011;69207;47.502;18.940;2023-12-20T00:06:50;73.62;;;35.70;;
65753;SDS011;69207;47.502;18.940;2023-12-20T00:07:55;98.40;;;36.10;;
65753;SDS011;69207;47.502;18.940;2023-12-20T00:08:58;102.38;;;37.40;;
65753;SDS011;69207;47.502;18.940;2023-12-20T00:10:01;74.82;;;35.00;;
65753;SDS011;69207;47.502;18.940;2023-12-20T00:11:05;76.28;;;34.78;;
65753;SDS011;69207;47.502;18.940;2023-12-20T00:12:09;84.37;;;36.03;;
65753;SDS011;69207;47.502;18.940;2023-12-20T00:13:12;88.37;;;38.38;;
65753;SDS011;69207;47.502;18.940;2023-12-20T00:14:17;123.45;;;39.40;;
65753;SDS011;69207;47.502;18.940;2023-12-20T00:15:20;95.47;;;38.42;;
65753;SDS011;69207;47.502;18.940;2023-12-20T00:16:23;81.93;;;35.72;;
65753;SDS011;69207;47.502;18.940;2023-12-20T00:17:26;82.35;;;34.95;;
65753;SDS011;69207;47.502;18.940;2023-12-20T00:18:29;90.60;;;34.75;;
65753;SDS011;69207;47.502;18.940;2023-12-20T00:19:33;75.62;;;33.58;;
65753;SDS011;69207;47.502;18.940;2023-12-20T00:20:36;81.93;;;32.30;;
65753;SDS011;69207;47.502;18.940;2023-12-20T00:21:39;79.15;;;33.78;;
65753;SDS011;69207;47.502;18.940;2023-12-20T00:22:43;100.60;;;37.45;;
65753;SDS011;69207;47.502;18.940;2023-12-20T00:23:46;85.97;;;33.10;;
65753;SDS011;69207;47.502;18.940;2023-12-20T00:24:49;103.50;;;36.92;;
65753;SDS011;69207;47.502;18.940;2023-12-20T00:25:52;125.05;;;38.63;;
65753;SDS011;69207;47.502;18.940;2023-12-20T00:26:55;92.25;;;37.17;;
65753;SDS011;69207;47.502;18.940;2023-12-20T00:27:58;92.53;;;38.05;;
65753;SDS011;69207;47.502;18.940;2023-12-20T00:29:01;136.48;;;40.72;;
65753;SDS011;69207;47.502;18.940;2023-12-20T00:30:05;120.55;;;39.03;;
65753;SDS011;69207;47.502;18.940;2023-12-20T00:31:09;116.93;;;40.83;;
65753;SDS011;69207;47.502;18.940;2023-12-20T00:32:12;120.82;;;40.80;;
65753;SDS011;69207;47.502;18.940;2023-12-20T00:33:16;116.57;;;40.35;;
65753;SDS011;69207;47.502;18.940;2023-12-20T00:34:19;112.55;;;40.58;;
65753;SDS011;69207;47.502;18.940;2023-12-20T00:35:22;129.20;;;43.40;;
65753;SDS011;69207;47.502;18.940;2023-12-20T00:36:25;148.00;;;42.42;;
65753;SDS011;69207;47.502;18.940;2023-12-20T00:37:28;144.18;;;41.50;;
65753;SDS011;69207;47.502;18.940;2023-12-20T00:38:32;131.50;;;40.60;;
65753;SDS011;69207;47.502;18.940;2023-12-20T00:39:35;108.28;;;40.72;;
65753;SDS011;69207;47.502;18.940;2023-12-20T00:40:38;110.12;;;41.78;;
65753;SDS011;69207;47.502;18.940;2023-12-20T00:41:41;122.53;;;41.88;;
65753;SDS011;69207;47.502;18.940;2023-12-20T00:42:45;160.73;;;44.40;;
65753;SDS011;69207;47.502;18.940;2023-12-20T00:43:49;140.27;;;41.80;;
65753;SDS011;69207;47.502;18.940;2023-12-20T00:44:52;178.43;;;42.33;;
65753;SDS011;69207;47.502;18.940;2023-12-20T00:45:55;161.95;;;43.00;;
65753;SDS011;69207;47.502;18.940;2023-12-20T00:46:59;127.85;;;40.92;;
65753;SDS011;69207;47.502;18.940;2023-12-20T00:48:03;130.68;;;41.65;;
65753;SDS011;69207;47.502;18.940;2023-12-20T00:49:07;137.88;;;43.13;;
65753;SDS011;69207;47.502;18.940;2023-12-20T00:50:10;105.87;;;40.35;;
65753;SDS011;69207;47.502;18.940;2023-12-20T00:51:14;119.95;;;41.35;;
65753;SDS011;69207;47.502;18.940;2023-12-20T00:52:17;142.68;;;41.75;;
65753;SDS011;69207;47.502;18.940;2023-12-20T00:53:21;122.28;;;40.10;;
65753;SDS011;69207;47.502;18.940;2023-12-20T00:54:24;151.52;;;41.33;;
65753;SDS011;69207;47.502;18.940;2023-12-20T00:55:28;112.78;;;39.70;;
65753;SDS011;69207;47.502;18.940;2023-12-20T00:56:31;127.62;;;41.65;;
65753;SDS011;69207;47.502;18.940;2023-12-20T00:57:34;145.98;;;45.03;;
65753;SDS011;69207;47.502;18.940;2023-12-20T00:58:38;163.73;;;44.65;;
65753;SDS011;69207;47.502;18.940;2023-12-20T00:59:41;146.23;;;43.63;;
65753;SDS011;69207;47.502;18.940;2023-12-20T01:00:44;128.62;;;43.45;;
65753;SDS011;69207;47.502;18.940;2023-12-20T01:01:49;135.65;;;43.42;;
65753;SDS011;69207;47.502;18.940;2023-12-20T01:02:53;129.07;;;43.03;;
65753;SDS011;69207;47.502;18.940;2023-12-20T01:03:57;128.07;;;40.75;;
65753;SDS011;69207;47.502;18.940;2023-12-20T01:05:00;122.60;;;41.50;;
65753;SDS011;69207;47.502;18.940;2023-12-20T01:06:03;148.40;;;41.45;;
65753;SDS011;69207;47.502;18.940;2023-12-20T01:07:08;154.90;;;42.60;;
65753;SDS011;69207;47.502;18.940;2023-12-20T01:08:11;197.13;;;46.08;;
65753;SDS011;69207;47.502;18.940;2023-12-20T01:09:15;145.80;;;39.22;;
65753;SDS011;69207;47.502;18.940;2023-12-20T01:10:18;215.75;;;45.17;;
65753;SDS011;69207;47.502;18.940;2023-12-20T01:11:22;198.05;;;46.83;;
65753;SDS011;69207;47.502;18.940;2023-12-20T01:12:25;151.60;;;40.25;;
65753;SDS011;69207;47.502;18.940;2023-12-20T01:13:28;213.87;;;46.35;;
65753;SDS011;69207;47.502;18.940;2023-12-20T01:14:33;178.70;;;44.45;;
65753;SDS011;69207;47.502;18.940;2023-12-20T01:15:36;126.55;;;43.80;;
65753;SDS011;69207;47.502;18.940;2023-12-20T01:16:39;115.43;;;40.10;;
65753;SDS011;69207;47.502;18.940;2023-12-20T01:17:42;124.45;;;43.85;;
65753;SDS011;69207;47.502;18.940;2023-12-20T01:18:46;148.68;;;45.85;;
65753;SDS011;69207;47.502;18.940;2023-12-20T01:19:49;135.32;;;44.58;;
65753;SDS011;69207;47.502;18.940;2023-12-20T01:20:53;158.93;;;42.95;;
65753;SDS011;69207;47.502;18.940;2023-12-20T01:21:56;172.35;;;39.55;;
65753;SDS011;69207;47.502;18.940;2023-12-20T01:22:59;119.93;;;37.10;;
65753;SDS011;69207;47.502;18.940;2023-12-20T01:24:03;123.97;;;34.83;;
65753;SDS011;69207;47.502;18.940;2023-12-20T01:25:07;130.77;;;34.38;;
65753;SDS011;69207;47.502;18.940;2023-12-20T01:26:11;102.35;;;32.80;;
65753;SDS011;69207;47.502;18.940;2023-12-20T01:27:14;110.03;;;33.20;;
65753;SDS011;69207;47.502;18.940;2023-12-20T01:28:17;118.47;;;32.67;;
65753;SDS011;69207;47.502;18.940;2023-12-20T01:29:21;133.52;;;31.85;;
65753;SDS011;69207;47.502;18.940;2023-12-20T01:30:25;131.98;;;33.75;;
65753;SDS011;69207;47.502;18.940;2023-12-20T01:31:28;159.60;;;33.90;;
65753;SDS011;69207;47.502;18.940;2023-12-20T01:32:31;151.98;;;32.47;;
65753;SDS011;69207;47.502;18.940;2023-12-20T01:33:34;163.05;;;33.42;;
65753;SDS011;69207;47.502;18.940;2023-12-20T01:34:37;139.62;;;33.90;;
65753;SDS011;69207;47.502;18.940;2023-12-20T01:35:41;139.68;;;32.20;;
65753;SDS011;69207;47.502;18.940;2023-12-20T01:36:45;123.47;;;31.77;;
65753;SDS011;69207;47.502;18.940;2023-12-20T01:37:47;100.40;;;33.85;;
65753;SDS011;69207;47.502;18.940;2023-12-20T01:38:51;107.55;;;31.73;;
65753;SDS011;69207;47.502;18.940;2023-12-20T01:39:54;116.43;;;32.70;;
65753;SDS011;69207;47.502;18.940;2023-12-20T01:40:57;134.63;;;32.95;;
65753;SDS011;69207;47.502;18.940;2023-12-20T01:42:00;126.82;;;31.83;;
65753;SDS011;69207;47.502;18.940;2023-12-20T01:43:06;137.70;;;31.33;;
65753;SDS011;69207;47.502;18.940;2023-12-20T01:44:11;115.72;;;31.73;;
65753;SDS011;69207;47.502;18.940;2023-12-20T01:45:14;151.25;;;32.20;;
65753;SDS011;69207;47.502;18.940;2023-12-20T01:46:17;158.77;;;33.88;;
65753;SDS011;69207;47.502;18.940;2023-12-20T01:47:23;81.28;;;30.27;;
65753;SDS011;69207;47.502;18.940;2023-12-20T01:48:26;132.12;;;32.17;;
65753;SDS011;69207;47.502;18.940;2023-12-20T01:49:30;99.30;;;31.58;;
65753;SDS011;69207;47.502;18.940;2023-12-20T01:50:35;133.60;;;32.53;;
65753;SDS011;69207;47.502;18.940;2023-12-20T01:51:39;126.72;;;34.30;;
65753;SDS011;69207;47.502;18.940;2023-12-20T01:52:43;179.80;;;33.58;;
65753;SDS011;69207;47.502;18.940;2023-12-20T01:53:47;125.90;;;31.60;;
65753;SDS011;69207;47.502;18.940;2023-12-20T01:54:50;113.22;;;31.73;;
65753;SDS011;69207;47.502;18.940;2023-12-20T01:55:54;92.72;;;30.60;;
65753;SDS011;69207;47.502;18.940;2023-12-20T01:57:01;86.47;;;30.08;;
65753;SDS011;69207;47.502;18.940;2023-12-20T01:58:06;94.82;;;29.83;;
65753;SDS011;69207;47.502;18.940;2023-12-20T01:59:11;97.30;;;30.27;;
65753;SDS011;69207;47.502;18.940;2023-12-20T02:00:15;72.00;;;30.50;;
65753;SDS011;69207;47.502;18.940;2023-12-20T02:01:19;87.03;;;29.95;;
65753;SDS011;69207;47.502;18.940;2023-12-20T02:02:22;87.72;;;31.37;;
65753;SDS011;69207;47.502;18.940;2023-12-20T02:03:26;139.35;;;29.30;;
65753;SDS011;69207;47.502;18.940;2023-12-20T02:04:29;89.05;;;28.77;;
65753;SDS011;69207;47.502;18.940;2023-12-20T02:05:33;73.70;;;30.30;;
65753;SDS011;69207;47.502;18.940;2023-12-20T02:06:39;87.12;;;30.77;;
65753;SDS011;69207;47.502;18.940;2023-12-20T02:07:43;93.45;;;30.20;;
65753;SDS011;69207;47.502;18.940;2023-12-20T02:08:47;78.35;;;29.50;;
65753;SDS011;69207;47.502;18.940;2023-12-20T02:09:51;82.03;;;30.67;;
65753;SDS011;69207;47.502;18.940;2023-12-20T02:10:55;59.92;;;28.92;;
65753;SDS011;69207;47.502;18.940;2023-12-20T02:11:58;57.03;;;27.70;;
65753;SDS011;69207;47.502;18.940;2023-12-20T02:13:02;52.53;;;28.17;;
65753;SDS011;69207;47.502;18.940;2023-12-20T02:14:08;55.33;;;27.80;;
65753;SDS011;69207;47.502;18.940;2023-12-20T02:15:11;52.00;;;28.00;;
65753;SDS011;69207;47.502;18.940;2023-12-20T02:16:15;55.20;;;28.10;;
65753;SDS011;69207;47.502;18.940;2023-12-20T02:17:18;51.97;;;28.48;;
65753;SDS011;69207;47.502;18.940;2023-12-20T02:18:21;53.83;;;27.98;;
65753;SDS011;69207;47.502;18.940;2023-12-20T02:19:25;58.42;;;29.12;;
65753;SDS011;69207;47.502;18.940;2023-12-20T02:20:29;51.88;;;27.85;;
65753;SDS011;69207;47.502;18.940;2023-12-20T02:21:32;51.85;;;27.98;;
65753;SDS011;69207;47.502;18.940;2023-12-20T02:22:36;50.95;;;27.62;;
65753;SDS011;69207;47.502;18.940;2023-12-20T02:23:40;48.92;;;26.52;;
65753;SDS011;69207;47.502;18.940;2023-12-20T02:24:43;53.13;;;27.77;;
65753;SDS011;69207;47.502;18.940;2023-12-20T02:25:46;76.87;;;28.80;;
65753;SDS011;69207;47.502;18.940;2023-12-20T02:26:50;67.97;;;29.73;;
65753;SDS011;69207;47.502;18.940;2023-12-20T02:27:53;51.70;;;26.33;;
65753;SDS011;69207;47.502;18.940;2023-12-20T02:28:58;49.88;;;26.20;;
65753;SDS011;69207;47.502;18.940;2023-12-20T02:30:02;52.03;;;27.40;;
65753;SDS011;69207;47.502;18.940;2023-12-20T02:31:06;64.60;;;27.67;;
65753;SDS011;69207;47.502;18.940;2023-12-20T02:32:09;56.47;;;27.37;;
65753;SDS011;69207;47.502;18.940;2023-12-20T02:33:12;58.70;;;26.65;;
65753;SDS011;69207;47.502;18.940;2023-12-20T02:34:18;51.45;;;26.52;;
65753;SDS011;69207;47.502;18.940;2023-12-20T02:35:21;63.72;;;28.52;;
65753;SDS011;69207;47.502;18.940;2023-12-20T02:36:24;60.63;;;27.33;;
65753;SDS011;69207;47.502;18.940;2023-12-20T02:37:27;77.93;;;29.70;;
65753;SDS011;69207;47.502;18.940;2023-12-20T02:38:30;92.32;;;31.37;;
65753;SDS011;69207;47.502;18.940;2023-12-20T02:39:34;72.55;;;28.42;;
65753;SDS011;69207;47.502;18.940;2023-12-20T02:40:37;91.50;;;31.85;;
65753;SDS011;69207;47.502;18.940;2023-12-20T02:41:40;102.93;;;32.45;;
65753;SDS011;69207;47.502;18.940;2023-12-20T02:42:43;104.03;;;32.97;;
65753;SDS011;69207;47.502;18.940;2023-12-20T02:43:47;108.30;;;31.37;;
65753;SDS011;69207;47.502;18.940;2023-12-20T02:44:50;79.30;;;31.75;;
65753;SDS011;69207;47.502;18.940;2023-12-20T02:45:54;94.82;;;34.63;;
65753;SDS011;69207;47.502;18.940;2023-12-20T02:46:57;85.80;;;33.95;;
65753;SDS011;69207;47.502;18.940;2023-12-20T02:48:00;88.72;;;33.40;;
65753;SDS011;69207;47.502;18.940;2023-12-20T02:49:05;80.22;;;33.40;;
65753;SDS011;69207;47.502;18.940;2023-12-20T02:50:09;86.15;;;34.13;;
65753;SDS011;69207;47.502;18.940;2023-12-20T02:51:13;91.22;;;34.00;;
65753;SDS011;69207;47.502;18.940;2023-12-20T02:52:16;100.28;;;33.83;;
65753;SDS011;69207;47.502;18.940;2023-12-20T02:53:20;122.50;;;34.72;;
65753;SDS011;69207;47.502;18.940;2023-12-20T02:54:23;94.90;;;33.17;;
65753;SDS011;69207;47.502;18.940;2023-12-20T02:55:27;118.72;;;33.42;;
65753;SDS011;69207;47.502;18.940;2023-12-20T02:56:31;102.45;;;33.97;;
65753;SDS011;69207;47.502;18.940;2023-12-20T02:57:37;95.05;;;33.00;;
65753;SDS011;69207;47.502;18.940;2023-12-20T02:58:45;99.37;;;33.65;;
65753;SDS011;69207;47.502;18.940;2023-12-20T02:59:48;107.05;;;33.88;;
65753;SDS011;69207;47.502;18.940;2023-12-20T03:00:51;100.40;;;34.08;;
65753;SDS011;69207;47.502;18.940;2023-12-20T03:01:54;177.15;;;33.00;;
65753;SDS011;69207;47.502;18.940;2023-12-20T03:02:58;150.10;;;31.60;;
65753;SDS011;69207;47.502;18.940;2023-12-20T03:04:02;105.28;;;32.35;;
65753;SDS011;69207;47.502;18.940;2023-12-20T03:05:05;130.30;;;35.38;;
65753;SDS011;69207;47.502;18.940;2023-12-20T03:06:09;131.68;;;35.00;;
65753;SDS011;69207;47.502;18.940;2023-12-20T03:07:12;121.82;;;36.30;;
65753;SDS011;69207;47.502;18.940;2023-12-20T03:08:15;108.25;;;35.35;;
65753;SDS011;69207;47.502;18.940;2023-12-20T03:09:18;98.70;;;34.58;;
65753;SDS011;69207;47.502;18.940;2023-12-20T03:10:21;144.70;;;33.03;;
65753;SDS011;69207;47.502;18.940;2023-12-20T03:11:29;142.43;;;33.08;;
65753;SDS011;69207;47.502;18.940;2023-12-20T03:12:32;111.65;;;33.10;;
65753;SDS011;69207;47.502;18.940;2023-12-20T03:13:36;143.60;;;33.28;;
65753;SDS011;69207;47.502;18.940;2023-12-20T03:14:39;175.95;;;33.92;;
65753;SDS011;69207;47.502;18.940;2023-12-20T03:15:42;115.25;;;33.50;;
65753;SDS011;69207;47.502;18.940;2023-12-20T03:16:51;117.37;;;32.05;;
65753;SDS011;69207;47.502;18.940;2023-12-20T03:17:54;149.85;;;31.92;;
65753;SDS011;69207;47.502;18.940;2023-12-20T03:18:57;123.40;;;31.95;;
65753;SDS011;69207;47.502;18.940;2023-12-20T03:20:01;130.07;;;31.08;;
65753;SDS011;69207;47.502;18.940;2023-12-20T03:21:05;116.50;;;29.95;;
65753;SDS011;69207;47.502;18.940;2023-12-20T03:22:08;143.52;;;29.48;;
65753;SDS011;69207;47.502;18.940;2023-12-20T03:23:11;180.12;;;29.58;;
65753;SDS011;69207;47.502;18.940;2023-12-20T03:24:15;133.52;;;30.55;;
65753;SDS011;69207;47.502;18.940;2023-12-20T03:25:18;118.50;;;28.67;;
65753;SDS011;69207;47.502;18.940;2023-12-20T03:26:21;136.68;;;28.62;;
65753;SDS011;69207;47.502;18.940;2023-12-20T03:27:25;120.93;;;27.00;;
65753;SDS011;69207;47.502;18.940;2023-12-20T03:28:29;75.12;;;25.75;;
65753;SDS011;69207;47.502;18.940;2023-12-20T03:29:32;74.47;;;25.20;;
65753;SDS011;69207;47.502;18.940;2023-12-20T03:30:35;81.63;;;26.60;;
65753;SDS011;69207;47.502;18.940;2023-12-20T03:31:39;91.10;;;26.87;;
65753;SDS011;69207;47.502;18.940;2023-12-20T03:32:42;105.93;;;28.35;;
65753;SDS011;69207;47.502;18.940;2023-12-20T03:33:45;96.57;;;26.33;;
65753;SDS011;69207;47.502;18.940;2023-12-20T03:34:48;103.35;;;27.85;;
65753;SDS011;69207;47.502;18.940;2023-12-20T03:35:52;80.40;;;25.73;;
65753;SDS011;69207;47.502;18.940;2023-12-20T03:36:55;89.32;;;25.83;;
65753;SDS011;69207;47.502;18.940;2023-12-20T03:37:59;138.48;;;25.92;;
65753;SDS011;69207;47.502;18.940;2023-12-20T03:39:02;97.12;;;26.20;;
65753;SDS011;69207;47.502;18.940;2023-12-20T03:40:06;109.95;;;25.12;;
65753;SDS011;69207;47.502;18.940;2023-12-20T03:41:09;79.28;;;25.12;;
65753;SDS011;69207;47.502;18.940;2023-12-20T03:42:13;84.85;;;25.17;;
65753;SDS011;69207;47.502;18.940;2023-12-20T03:43:16;58.87;;;24.48;;
65753;SDS011;69207;47.502;18.940;2023-12-20T03:44:20;77.75;;;26.42;;
65753;SDS011;69207;47.502;18.940;2023-12-20T03:45:23;55.53;;;25.25;;
65753;SDS011;69207;47.502;18.940;2023-12-20T03:46:26;53.38;;;24.98;;
65753;SDS011;69207;47.502;18.940;2023-12-20T03:47:30;54.55;;;24.73;;
65753;SDS011;69207;47.502;18.940;2023-12-20T03:48:33;55.55;;;25.25;;
65753;SDS011;69207;47.502;18.940;2023-12-20T03:49:36;53.05;;;24.58;;
65753;SDS011;69207;47.502;18.940;2023-12-20T03:50:41;55.42;;;26.42;;
65753;SDS011;69207;47.502;18.940;2023-12-20T03:51:44;56.50;;;26.90;;
65753;SDS011;69207;47.502;18.940;2023-12-20T03:52:48;55.55;;;26.35;;
65753;SDS011;69207;47.502;18.940;2023-12-20T03:53:51;54.17;;;25.08;;
65753;SDS011;69207;47.502;18.940;2023-12-20T03:54:54;55.28;;;26.60;;
65753;SDS011;69207;47.502;18.940;2023-12-20T03:55:57;55.05;;;25.95;;
65753;SDS011;69207;47.502;18.940;2023-12-20T03:57:01;59.58;;;27.37;;
65753;SDS011;69207;47.502;18.940;2023-12-20T03:58:04;56.78;;;26.87;;
65753;SDS011;69207;47.502;18.940;2023-12-20T03:59:07;50.00;;;25.40;;
65753;SDS011;69207;47.502;18.940;2023-12-20T04:00:11;54.13;;;25.35;;
65753;SDS011;69207;47.502;18.940;2023-12-20T04:01:14;48.67;;;23.60;;
65753;SDS011;69207;47.502;18.940;2023-12-20T04:02:18;53.90;;;25.33;;
65753;SDS011;69207;47.502;18.940;2023-12-20T04:03:21;54.60;;;24.67;;
65753;SDS011;69207;47.502;18.940;2023-12-20T04:04:25;51.15;;;23.77;;
65753;SDS011;69207;47.502;18.940;2023-12-20T04:05:28;58.00;;;26.58;;
65753;SDS011;69207;47.502;18.940;2023-12-20T04:06:31;52.20;;;23.73;;
65753;SDS011;69207;47.502;18.940;2023-12-20T04:07:34;54.40;;;24.40;;
65753;SDS011;69207;47.502;18.940;2023-12-20T04:08:38;59.20;;;25.85;;
65753;SDS011;69207;47.502;18.940;2023-12-20T04:09:41;57.55;;;25.30;;
65753;SDS011;69207;47.502;18.940;2023-12-20T04:10:45;58.50;;;24.92;;
65753;SDS011;69207;47.502;18.940;2023-12-20T04:11:48;55.10;;;25.25;;
65753;SDS011;69207;47.502;18.940;2023-12-20T04:12:51;57.08;;;24.70;;
65753;SDS011;69207;47.502;18.940;2023-12-20T04:13:54;50.63;;;23.12;;
65753;SDS011;69207;47.502;18.940;2023-12-20T04:14:58;58.45;;;25.48;;
65753;SDS011;69207;47.502;18.940;2023-12-20T04:16:01;47.47;;;23.35;;
65753;SDS011;69207;47.502;18.940;2023-12-20T04:17:04;48.92;;;22.95;;
65753;SDS011;69207;47.502;18.940;2023-12-20T04:18:08;53.70;;;24.90;;
65753;SDS011;69207;47.502;18.940;2023-12-20T04:19:11;56.85;;;24.30;;
65753;SDS011;69207;47.502;18.940;2023-12-20T04:20:14;54.28;;;25.02;;
65753;SDS011;69207;47.502;18.940;2023-12-20T04:21:17;53.25;;;24.17;;
65753;SDS011;69207;47.502;18.940;2023-12-20T04:22:21;51.78;;;25.33;;
65753;SDS011;69207;47.502;18.940;2023-12-20T04:23:24;52.78;;;24.70;;
65753;SDS011;69207;47.502;18.940;2023-12-20T04:24:27;54.38;;;25.02;;
65753;SDS011;69207;47.502;18.940;2023-12-20T04:25:30;46.47;;;22.60;;
65753;SDS011;69207;47.502;18.940;2023-12-20T04:26:33;52.08;;;23.35;;
65753;SDS011;69207;47.502;18.940;2023-12-20T04:27:36;55.28;;;23.73;;
65753;SDS011;69207;47.502;18.940;2023-12-20T04:28:40;61.67;;;24.80;;
65753;SDS011;69207;47.502;18.940;2023-12-20T04:29:43;59.58;;;24.77;;
65753;SDS011;69207;47.502;18.940;2023-12-20T04:30:47;60.12;;;25.08;;
65753;SDS011;69207;47.502;18.940;2023-12-20T04:31:50;57.05;;;24.67;;
65753;SDS011;69207;47.502;18.940;2023-12-20T04:32:54;55.42;;;24.05;;
65753;SDS011;69207;47.502;18.940;2023-12-20T04:33:57;52.38;;;24.17;;
65753;SDS011;69207;47.502;18.940;2023-12-20T04:35:01;60.15;;;25.00;;
65753;SDS011;69207;47.502;18.940;2023-12-20T04:36:04;59.75;;;24.92;;
65753;SDS011;69207;47.502;18.940;2023-12-20T04:37:08;52.22;;;23.92;;
65753;SDS011;69207;47.502;18.940;2023-12-20T04:38:11;51.25;;;23.83;;
65753;SDS011;69207;47.502;18.940;2023-12-20T04:39:14;57.65;;;24.25;;
65753;SDS011;69207;47.502;18.940;2023-12-20T04:40:18;52.78;;;23.98;;
65753;SDS011;69207;47.502;18.940;2023-12-20T04:41:21;54.17;;;23.10;;
65753;SDS011;69207;47.502;18.940;2023-12-20T04:42:24;53.38;;;23.00;;
65753;SDS011;69207;47.502;18.940;2023-12-20T04:43:28;54.38;;;23.62;;
65753;SDS011;69207;47.502;18.940;2023-12-20T04:44:32;52.83;;;22.08;;
65753;SDS011;69207;47.502;18.940;2023-12-20T04:45:36;49.20;;;21.77;;
65753;SDS011;69207;47.502;18.940;2023-12-20T04:46:39;43.05;;;20.80;;
65753;SDS011;69207;47.502;18.940;2023-12-20T04:47:43;52.47;;;22.55;;
65753;SDS011;69207;47.502;18.940;2023-12-20T04:48:46;47.78;;;21.45;;
65753;SDS011;69207;47.502;18.940;2023-12-20T04:49:50;45.63;;;21.83;;
65753;SDS011;69207;47.502;18.940;2023-12-20T04:50:54;45.70;;;21.02;;
65753;SDS011;69207;47.502;18.940;2023-12-20T04:51:57;47.50;;;21.98;;
65753;SDS011;69207;47.502;18.940;2023-12-20T04:53:00;46.92;;;21.92;;
65753;SDS011;69207;47.502;18.940;2023-12-20T04:54:03;48.17;;;21.90;;
65753;SDS011;69207;47.502;18.940;2023-12-20T04:55:06;46.37;;;22.98;;
65753;SDS011;69207;47.502;18.940;2023-12-20T04:56:09;44.33;;;22.48;;
65753;SDS011;69207;47.502;18.940;2023-12-20T04:57:13;42.70;;;21.80;;
65753;SDS011;69207;47.502;18.940;2023-12-20T04:58:16;41.83;;;20.12;;
65753;SDS011;69207;47.502;18.940;2023-12-20T04:59:20;43.08;;;22.37;;
65753;SDS011;69207;47.502;18.940;2023-12-20T05:00:23;44.92;;;22.17;;
65753;SDS011;69207;47.502;18.940;2023-12-20T05:01:26;43.78;;;20.80;;
65753;SDS011;69207;47.502;18.940;2023-12-20T05:02:29;45.88;;;21.35;;
65753;SDS011;69207;47.502;18.940;2023-12-20T05:03:32;52.25;;;22.55;;
65753;SDS011;69207;47.502;18.940;2023-12-20T05:04:35;52.10;;;22.98;;
65753;SDS011;69207;47.502;18.940;2023-12-20T05:05:39;56.72;;;24.77;;
65753;SDS011;69207;47.502;18.940;2023-12-20T05:06:42;55.20;;;23.98;;
65753;SDS011;69207;47.502;18.940;2023-12-20T05:07:45;57.67;;;24.35;;
65753;SDS011;69207;47.502;18.940;2023-12-20T05:08:49;53.85;;;22.67;;
65753;SDS011;69207;47.502;18.940;2023-12-20T05:09:52;56.33;;;23.87;;
65753;SDS011;69207;47.502;18.940;2023-12-20T05:10:56;58.22;;;24.23;;
65753;SDS011;69207;47.502;18.940;2023-12-20T05:12:00;46.50;;;22.00;;
65753;SDS011;69207;47.502;18.940;2023-12-20T05:13:03;55.30;;;24.70;;
65753;SDS011;69207;47.502;18.940;2023-12-20T05:14:06;55.45;;;24.60;;
65753;SDS011;69207;47.502;18.940;2023-12-20T05:15:11;56.22;;;25.05;;
65753;SDS011;69207;47.502;18.940;2023-12-20T05:16:14;57.40;;;24.50;;
65753;SDS011;69207;47.502;18.940;2023-12-20T05:17:18;60.12;;;24.55;;
65753;SDS011;69207;47.502;18.940;2023-12-20T05:18:23;56.67;;;23.77;;
65753;SDS011;69207;47.502;18.940;2023-12-20T05:19:27;54.42;;;23.45;;
65753;SDS011;69207;47.502;18.940;2023-12-20T05:20:31;50.15;;;23.05;;
65753;SDS011;69207;47.502;18.940;2023-12-20T05:21:34;54.63;;;23.40;;
65753;SDS011;69207;47.502;18.940;2023-12-20T05:22:38;53.55;;;23.17;;
65753;SDS011;69207;47.502;18.940;2023-12-20T05:23:42;56.88;;;24.77;;
65753;SDS011;69207;47.502;18.940;2023-12-20T05:24:45;61.95;;;24.02;;
65753;SDS011;69207;47.502;18.940;2023-12-20T05:25:48;105.47;;;25.70;;
65753;SDS011;69207;47.502;18.940;2023-12-20T05:26:51;85.45;;;26.12;;
65753;SDS011;69207;47.502;18.940;2023-12-20T05:27:55;63.38;;;24.17;;
65753;SDS011;69207;47.502;18.940;2023-12-20T05:28:59;51.78;;;23.10;;
65753;SDS011;69207;47.502;18.940;2023-12-20T05:30:02;59.20;;;25.05;;
65753;SDS011;69207;47.502;18.940;2023-12-20T05:31:07;75.43;;;26.67;;
65753;SDS011;69207;47.502;18.940;2023-12-20T05:32:11;79.53;;;27.25;;
65753;SDS011;69207;47.502;18.940;2023-12-20T05:33:14;69.37;;;25.33;;
65753;SDS011;69207;47.502;18.940;2023-12-20T05:34:17;68.12;;;27.13;;
65753;SDS011;69207;47.502;18.940;2023-12-20T05:35:21;66.72;;;26.25;;
65753;SDS011;69207;47.502;18.940;2023-12-20T05:36:26;71.87;;;28.27;;
65753;SDS011;69207;47.502;18.940;2023-12-20T05:37:31;82.60;;;26.50;;
65753;SDS011;69207;47.502;18.940;2023-12-20T05:38:34;83.62;;;27.77;;
65753;SDS011;69207;47.502;18.940;2023-12-20T05:39:37;85.00;;;27.80;;
65753;SDS011;69207;47.502;18.940;2023-12-20T05:40:40;77.78;;;26.48;;
65753;SDS011;69207;47.502;18.940;2023-12-20T05:41:43;69.18;;;27.40;;
65753;SDS011;69207;47.502;18.940;2023-12-20T05:42:46;59.45;;;26.20;;
65753;SDS011;69207;47.502;18.940;2023-12-20T05:43:50;61.83;;;26.25;;
65753;SDS011;69207;47.502;18.940;2023-12-20T05:44:53;68.78;;;28.30;;
65753;SDS011;69207;47.502;18.940;2023-12-20T05:46:00;67.75;;;27.92;;
65753;SDS011;69207;47.502;18.940;2023-12-20T05:47:04;70.30;;;27.05;;
65753;SDS011;69207;47.502;18.940;2023-12-20T05:48:07;64.72;;;26.87;;
65753;SDS011;69207;47.502;18.940;2023-12-20T05:49:10;62.08;;;26.00;;
65753;SDS011;69207;47.502;18.940;2023-12-20T05:50:13;58.83;;;25.35;;
65753;SDS011;69207;47.502;18.940;2023-12-20T05:51:17;59.20;;;24.80;;
65753;SDS011;69207;47.502;18.940;2023-12-20T05:52:20;63.50;;;27.17;;
65753;SDS011;69207;47.502;18.940;2023-12-20T05:53:24;57.70;;;25.08;;
65753;SDS011;69207;47.502;18.940;2023-12-20T05:54:27;66.40;;;26.33;;
65753;SDS011;69207;47.502;18.940;2023-12-20T05:55:30;67.35;;;27.33;;
65753;SDS011;69207;47.502;18.940;2023-12-20T05:56:33;58.67;;;25.02;;
65753;SDS011;69207;47.502;18.940;2023-12-20T05:57:36;65.90;;;27.35;;
65753;SDS011;69207;47.502;18.940;2023-12-20T05:58:40;63.47;;;26.45;;
65753;SDS011;69207;47.502;18.940;2023-12-20T05:59:43;65.25;;;26.40;;
65753;SDS011;69207;47.502;18.940;2023-12-20T06:00:46;63.22;;;27.42;;
65753;SDS011;69207;47.502;18.940;2023-12-20T06:01:51;56.58;;;25.35;;
65753;SDS011;69207;47.502;18.940;2023-12-20T06:02:54;62.08;;;26.42;;
65753;SDS011;69207;47.502;18.940;2023-12-20T06:03:58;62.85;;;26.87;;